sensor_id;sensor_type;location;lat;lon;timestamp;pressure;altitude;pressure_sealevel;temperature;humidity
29935;BME280;19905;53.370;-6.314;2023-05-11T00:00:12;100999.69;;;10.27;100.00
29935;BME280;19905;53.370;-6.314;2023-05-11T00:02:41;100993.44;;;10.28;100.00
29935;BME280;19905;53.370;-6.314;2023-05-11T00:05:11;100995.88;;;10.31;100.00
29935;BME280;19905;53.370;-6.314;2023-05-11T00:07:40;100989.50;;;10.34;100.00
29935;BME280;19905;53.370;-6.314;2023-05-11T00:10:09;100994.91;;;10.32;100.00
29935;BME280;19905;53.370;-6.314;2023-05-11T00:12:38;100987.94;;;10.31;100.00
29935;BME280;19905;53.370;-6.314;2023-05-11T00:15:07;100997.75;;;10.29;100.00
29935;BME280;19905;53.370;-6.314;2023-05-11T00:17:38;100991.09;;;10.24;100.00
29935;BME280;19905;53.370;-6.314;2023-05-11T00:20:07;100983.94;;;10.26;100.00
29935;BME280;19905;53.370;-6.314;2023-05-11T00:22:36;100982.75;;;10.17;100.00
29935;BME280;19905;53.370;-6.314;2023-05-11T00:25:06;100983.63;;;10.17;100.00
29935;BME280;19905;53.370;-6.314;2023-05-11T00:27:34;100986.13;;;10.19;100.00
29935;BME280;19905;53.370;-6.314;2023-05-11T00:30:04;100996.69;;;10.19;100.00
29935;BME280;19905;53.370;-6.314;2023-05-11T00:32:33;100992.47;;;10.16;100.00
29935;BME280;19905;53.370;-6.314;2023-05-11T00:35:04;100990.06;;;10.13;100.00
29935;BME280;19905;53.370;-6.314;2023-05-11T00:37:32;100998.28;;;10.09;100.00
29935;BME280;19905;53.370;-6.314;2023-05-11T00:40:02;100995.13;;;10.04;100.00
29935;BME280;19905;53.370;-6.314;2023-05-11T00:42:30;100997.66;;;10.05;100.00
29935;BME280;19905;53.370;-6.314;2023-05-11T00:44:59;101001.34;;;10.03;100.00
29935;BME280;19905;53.370;-6.314;2023-05-11T00:47:28;100997.78;;;10.04;100.00
29935;BME280;19905;53.370;-6.314;2023-05-11T00:49:57;100996.38;;;9.98;100.00
29935;BME280;19905;53.370;-6.314;2023-05-11T00:52:28;100995.78;;;9.95;100.00
29935;BME280;19905;53.370;-6.314;2023-05-11T00:54:57;100996.19;;;9.88;100.00
29935;BME280;19905;53.370;-6.314;2023-05-11T00:57:26;101004.41;;;9.84;100.00
29935;BME280;19905;53.370;-6.314;2023-05-11T00:59:57;100992.50;;;9.78;100.00
29935;BME280;19905;53.370;-6.314;2023-05-11T01:02:27;100995.44;;;9.74;100.00
29935;BME280;19905;53.370;-6.314;2023-05-11T01:04:55;101001.75;;;9.71;100.00
29935;BME280;19905;53.370;-6.314;2023-05-11T01:07:29;101012.63;;;9.66;100.00
29935;BME280;19905;53.370;-6.314;2023-05-11T01:10:05;101002.06;;;9.66;100.00
29935;BME280;19905;53.370;-6.314;2023-05-11T01:12:42;101007.88;;;9.59;100.00
29935;BME280;19905;53.370;-6.314;2023-05-11T01:15:17;101014.13;;;9.58;100.00
29935;BME280;19905;53.370;-6.314;2023-05-11T01:17:53;101017.59;;;9.58;100.00
29935;BME280;19905;53.370;-6.314;2023-05-11T01:20:25;101013.16;;;9.59;100.00
29935;BME280;19905;53.370;-6.314;2023-05-11T01:23:15;101019.28;;;9.59;100.00
29935;BME280;19905;53.370;-6.314;2023-05-11T01:26:08;101015.56;;;9.62;100.00
29935;BME280;19905;53.370;-6.314;2023-05-11T01:31:45;101020.53;;;9.66;100.00
29935;BME280;19905;53.370;-6.314;2023-05-11T01:34:17;101022.13;;;9.69;100.00
29935;BME280;19905;53.370;-6.314;2023-05-11T01:36:50;101026.56;;;9.68;100.00
29935;BME280;19905;53.370;-6.314;2023-05-11T01:39:23;101019.81;;;9.64;100.00
29935;BME280;19905;53.370;-6.314;2023-05-11T01:41:54;101023.72;;;9.59;100.00
29935;BME280;19905;53.370;-6.314;2023-05-11T01:44:26;101022.22;;;9.55;100.00
29935;BME280;19905;53.370;-6.314;2023-05-11T01:47:01;101013.13;;;9.46;100.00
29935;BME280;19905;53.370;-6.314;2023-05-11T01:49:32;101015.22;;;9.41;100.00
29935;BME280;19905;53.370;-6.314;2023-05-11T01:52:06;101022.69;;;9.34;100.00
29935;BME280;19905;53.370;-6.314;2023-05-11T01:54:36;101031.47;;;9.35;100.00
29935;BME280;19905;53.370;-6.314;2023-05-11T01:57:06;101031.84;;;9.29;100.00
29935;BME280;19905;53.370;-6.314;2023-05-11T01:59:38;101037.22;;;9.27;100.00
29935;BME280;19905;53.370;-6.314;2023-05-11T02:02:10;101033.84;;;9.25;100.00
29935;BME280;19905;53.370;-6.314;2023-05-11T02:04:40;101039.22;;;9.24;100.00
29935;BME280;19905;53.370;-6.314;2023-05-11T02:07:12;101039.63;;;9.18;100.00
29935;BME280;19905;53.370;-6.314;2023-05-11T02:09:41;101043.22;;;9.16;100.00
29935;BME280;19905;53.370;-6.314;2023-05-11T02:12:11;101037.06;;;9.16;100.00
29935;BME280;19905;53.370;-6.314;2023-05-11T02:14:41;101043.09;;;9.18;100.00
29935;BME280;19905;53.370;-6.314;2023-05-11T02:17:12;101042.56;;;9.13;100.00
29935;BME280;19905;53.370;-6.314;2023-05-11T02:19:43;101044.44;;;9.11;100.00
29935;BME280;19905;53.370;-6.314;2023-05-11T02:22:12;101046.34;;;9.09;100.00
29935;BME280;19905;53.370;-6.314;2023-05-11T02:24:41;101060.47;;;9.08;100.00
29935;BME280;19905;53.370;-6.314;2023-05-11T02:27:11;101049.94;;;9.08;100.00
29935;BME280;19905;53.370;-6.314;2023-05-11T02:29:39;101054.25;;;9.09;100.00
29935;BME280;19905;53.370;-6.314;2023-05-11T02:32:13;101053.41;;;9.08;100.00
29935;BME280;19905;53.370;-6.314;2023-05-11T02:34:46;101051.19;;;9.15;100.00
29935;BME280;19905;53.370;-6.314;2023-05-11T02:37:21;101060.78;;;9.16;100.00
29935;BME280;19905;53.370;-6.314;2023-05-11T02:39:59;101055.22;;;9.21;100.00
29935;BME280;19905;53.370;-6.314;2023-05-11T02:42:35;101069.16;;;9.23;100.00
29935;BME280;19905;53.370;-6.314;2023-05-11T02:45:07;101063.59;;;9.27;100.00
29935;BME280;19905;53.370;-6.314;2023-05-11T02:47:41;101063.41;;;9.30;100.00
29935;BME280;19905;53.370;-6.314;2023-05-11T02:50:10;101056.66;;;9.39;100.00
29935;BME280;19905;53.370;-6.314;2023-05-11T02:52:44;101065.53;;;9.38;100.00
29935;BME280;19905;53.370;-6.314;2023-05-11T02:55:14;101060.91;;;9.41;100.00
29935;BME280;19905;53.370;-6.314;2023-05-11T02:57:45;101068.63;;;9.45;100.00
29935;BME280;19905;53.370;-6.314;2023-05-11T03:00:14;101061.63;;;9.43;100.00
29935;BME280;19905;53.370;-6.314;2023-05-11T03:02:45;101058.25;;;9.41;100.00
29935;BME280;19905;53.370;-6.314;2023-05-11T03:05:14;101064.03;;;9.34;100.00
29935;BME280;19905;53.370;-6.314;2023-05-11T03:07:43;101059.66;;;9.20;100.00
29935;BME280;19905;53.370;-6.314;2023-05-11T03:10:13;101052.03;;;9.15;100.00
29935;BME280;19905;53.370;-6.314;2023-05-11T03:12:42;101056.47;;;9.15;100.00
29935;BME280;19905;53.370;-6.314;2023-05-11T03:15:11;101056.59;;;9.13;100.00
29935;BME280;19905;53.370;-6.314;2023-05-11T03:17:40;101059.22;;;9.13;100.00
29935;BME280;19905;53.370;-6.314;2023-05-11T03:20:11;101068.91;;;9.13;100.00
29935;BME280;19905;53.370;-6.314;2023-05-11T03:22:43;101072.41;;;9.13;100.00
29935;BME280;19905;53.370;-6.314;2023-05-11T03:25:14;101063.34;;;9.18;100.00
29935;BME280;19905;53.370;-6.314;2023-05-11T03:27:45;101059.03;;;9.16;100.00
29935;BME280;19905;53.370;-6.314;2023-05-11T03:30:15;101066.81;;;9.18;100.00
29935;BME280;19905;53.370;-6.314;2023-05-11T03:32:45;101069.16;;;9.23;100.00
29935;BME280;19905;53.370;-6.314;2023-05-11T03:35:16;101065.97;;;9.18;100.00
29935;BME280;19905;53.370;-6.314;2023-05-11T03:37:45;101065.03;;;9.19;100.00
29935;BME280;19905;53.370;-6.314;2023-05-11T03:40:16;101072.94;;;9.19;100.00
29935;BME280;19905;53.370;-6.314;2023-05-11T03:42:47;101066.94;;;9.16;100.00
29935;BME280;19905;53.370;-6.314;2023-05-11T03:45:17;101080.00;;;9.18;100.00
29935;BME280;19905;53.370;-6.314;2023-05-11T03:47:49;101079.25;;;9.16;100.00
29935;BME280;19905;53.370;-6.314;2023-05-11T03:50:20;101084.31;;;9.19;100.00
29935;BME280;19905;53.370;-6.314;2023-05-11T03:52:49;101074.63;;;9.20;100.00
29935;BME280;19905;53.370;-6.314;2023-05-11T03:55:19;101073.78;;;9.19;100.00
29935;BME280;19905;53.370;-6.314;2023-05-11T03:57:49;101073.69;;;9.21;100.00
29935;BME280;19905;53.370;-6.314;2023-05-11T04:00:18;101067.47;;;9.22;100.00
29935;BME280;19905;53.370;-6.314;2023-05-11T04:02:48;101070.56;;;9.28;100.00
29935;BME280;19905;53.370;-6.314;2023-05-11T04:05:17;101089.19;;;9.25;100.00
29935;BME280;19905;53.370;-6.314;2023-05-11T04:07:49;101075.94;;;9.27;100.00
29935;BME280;19905;53.370;-6.314;2023-05-11T04:10:18;101071.50;;;9.27;100.00
29935;BME280;19905;53.370;-6.314;2023-05-11T04:12:46;101074.97;;;9.28;100.00
29935;BME280;19905;53.370;-6.314;2023-05-11T04:15:15;101080.78;;;9.33;100.00
29935;BME280;19905;53.370;-6.314;2023-05-11T04:17:44;101075.34;;;9.36;100.00
29935;BME280;19905;53.370;-6.314;2023-05-11T04:20:12;101079.22;;;9.30;100.00
29935;BME280;19905;53.370;-6.314;2023-05-11T04:22:41;101072.16;;;9.31;100.00
29935;BME280;19905;53.370;-6.314;2023-05-11T04:25:11;101097.75;;;9.29;100.00
29935;BME280;19905;53.370;-6.314;2023-05-11T04:27:40;101080.13;;;9.29;100.00
29935;BME280;19905;53.370;-6.314;2023-05-11T04:30:10;101085.41;;;9.29;100.00
29935;BME280;19905;53.370;-6.314;2023-05-11T04:32:38;101087.13;;;9.30;100.00
29935;BME280;19905;53.370;-6.314;2023-05-11T04:35:07;101083.63;;;9.30;100.00
29935;BME280;19905;53.370;-6.314;2023-05-11T04:37:36;101089.78;;;9.30;100.00
29935;BME280;19905;53.370;-6.314;2023-05-11T04:40:06;101084.38;;;9.32;100.00
29935;BME280;19905;53.370;-6.314;2023-05-11T04:42:37;101087.97;;;9.31;100.00
29935;BME280;19905;53.370;-6.314;2023-05-11T04:45:06;101087.97;;;9.31;100.00
29935;BME280;19905;53.370;-6.314;2023-05-11T04:47:35;101094.16;;;9.30;100.00
29935;BME280;19905;53.370;-6.314;2023-05-11T04:50:04;101092.47;;;9.29;100.00
29935;BME280;19905;53.370;-6.314;2023-05-11T04:52:33;101095.97;;;9.29;100.00
29935;BME280;19905;53.370;-6.314;2023-05-11T04:55:02;101086.91;;;9.33;100.00
29935;BME280;19905;53.370;-6.314;2023-05-11T04:57:31;101082.69;;;9.31;100.00
29935;BME280;19905;53.370;-6.314;2023-05-11T05:00:02;101089.66;;;9.32;100.00
29935;BME280;19905;53.370;-6.314;2023-05-11T05:02:31;101087.84;;;9.32;100.00
29935;BME280;19905;53.370;-6.314;2023-05-11T05:05:00;101095.13;;;9.29;100.00
29935;BME280;19905;53.370;-6.314;2023-05-11T05:07:29;101097.66;;;9.30;100.00
29935;BME280;19905;53.370;-6.314;2023-05-11T05:09:57;101097.38;;;9.35;100.00
29935;BME280;19905;53.370;-6.314;2023-05-11T05:12:26;101102.94;;;9.30;100.00
29935;BME280;19905;53.370;-6.314;2023-05-11T05:14:55;101104.41;;;9.34;100.00
29935;BME280;19905;53.370;-6.314;2023-05-11T05:17:25;101104.22;;;9.37;100.00
29935;BME280;19905;53.370;-6.314;2023-05-11T05:19:54;101100.63;;;9.38;100.00
29935;BME280;19905;53.370;-6.314;2023-05-11T05:22:24;101104.03;;;9.40;100.00
29935;BME280;19905;53.370;-6.314;2023-05-11T05:24:53;101110.25;;;9.39;100.00
29935;BME280;19905;53.370;-6.314;2023-05-11T05:27:22;101096.00;;;9.42;100.00
29935;BME280;19905;53.370;-6.314;2023-05-11T05:29:51;101102.13;;;9.42;100.00
29935;BME280;19905;53.370;-6.314;2023-05-11T05:32:19;101094.88;;;9.46;100.00
29935;BME280;19905;53.370;-6.314;2023-05-11T05:34:49;101096.84;;;9.42;100.00
29935;BME280;19905;53.370;-6.314;2023-05-11T05:37:17;101092.13;;;9.48;100.00
29935;BME280;19905;53.370;-6.314;2023-05-11T05:39:46;101093.72;;;9.50;100.00
29935;BME280;19905;53.370;-6.314;2023-05-11T05:42:16;101092.28;;;9.59;100.00
29935;BME280;19905;53.370;-6.314;2023-05-11T05:44:44;101090.78;;;9.55;100.00
29935;BME280;19905;53.370;-6.314;2023-05-11T05:47:13;101095.00;;;9.57;100.00
29935;BME280;19905;53.370;-6.314;2023-05-11T05:49:41;101093.44;;;9.55;100.00
29935;BME280;19905;53.370;-6.314;2023-05-11T05:52:11;101093.97;;;9.60;100.00
29935;BME280;19905;53.370;-6.314;2023-05-11T05:54:39;101100.84;;;9.62;100.00
29935;BME280;19905;53.370;-6.314;2023-05-11T05:57:08;101093.78;;;9.63;100.00
29935;BME280;19905;53.370;-6.314;2023-05-11T05:59:40;101110.97;;;9.68;100.00
29935;BME280;19905;53.370;-6.314;2023-05-11T06:02:09;101103.91;;;9.69;100.00
29935;BME280;19905;53.370;-6.314;2023-05-11T06:04:39;101102.94;;;9.70;100.00
29935;BME280;19905;53.370;-6.314;2023-05-11T06:07:08;101107.19;;;9.73;100.00
29935;BME280;19905;53.370;-6.314;2023-05-11T06:09:38;101103.28;;;9.78;100.00
29935;BME280;19905;53.370;-6.314;2023-05-11T06:12:07;101107.41;;;9.82;100.00
29935;BME280;19905;53.370;-6.314;2023-05-11T06:14:36;101103.81;;;9.83;100.00
29935;BME280;19905;53.370;-6.314;2023-05-11T06:17:04;101097.50;;;9.99;100.00
29935;BME280;19905;53.370;-6.314;2023-05-11T06:19:34;101096.97;;;9.93;100.00
29935;BME280;19905;53.370;-6.314;2023-05-11T06:22:03;101109.00;;;9.98;100.00
29935;BME280;19905;53.370;-6.314;2023-05-11T06:24:33;101104.06;;;10.06;100.00
29935;BME280;19905;53.370;-6.314;2023-05-11T06:27:03;101100.28;;;10.10;100.00
29935;BME280;19905;53.370;-6.314;2023-05-11T06:29:34;101105.34;;;10.13;100.00
29935;BME280;19905;53.370;-6.314;2023-05-11T06:32:02;101103.31;;;10.16;100.00
29935;BME280;19905;53.370;-6.314;2023-05-11T06:34:32;101110.09;;;10.21;100.00
29935;BME280;19905;53.370;-6.314;2023-05-11T06:37:01;101104.81;;;10.21;100.00
29935;BME280;19905;53.370;-6.314;2023-05-11T06:39:29;101113.03;;;10.16;100.00
29935;BME280;19905;53.370;-6.314;2023-05-11T06:41:58;101114.72;;;10.17;100.00
29935;BME280;19905;53.370;-6.314;2023-05-11T06:44:33;101107.78;;;10.16;100.00
29935;BME280;19905;53.370;-6.314;2023-05-11T06:47:03;101120.97;;;10.16;100.00
29935;BME280;19905;53.370;-6.314;2023-05-11T06:49:42;101132.91;;;10.22;100.00
29935;BME280;19905;53.370;-6.314;2023-05-11T06:52:18;101116.44;;;10.18;100.00
29935;BME280;19905;53.370;-6.314;2023-05-11T06:55:03;101122.16;;;10.25;100.00
29935;BME280;19905;53.370;-6.314;2023-05-11T06:57:31;101120.28;;;10.27;100.00
29935;BME280;19905;53.370;-6.314;2023-05-11T07:00:03;101123.88;;;10.38;100.00
29935;BME280;19905;53.370;-6.314;2023-05-11T07:02:37;101118.91;;;10.34;100.00
29935;BME280;19905;53.370;-6.314;2023-05-11T07:05:06;101121.22;;;10.26;100.00
29935;BME280;19905;53.370;-6.314;2023-05-11T07:07:35;101116.03;;;10.24;100.00
29935;BME280;19905;53.370;-6.314;2023-05-11T07:10:04;101116.78;;;10.26;100.00
29935;BME280;19905;53.370;-6.314;2023-05-11T07:12:33;101122.25;;;10.23;100.00
29935;BME280;19905;53.370;-6.314;2023-05-11T07:15:03;101120.00;;;10.17;100.00
29935;BME280;19905;53.370;-6.314;2023-05-11T07:17:33;101129.53;;;10.19;100.00
29935;BME280;19905;53.370;-6.314;2023-05-11T07:20:01;101126.88;;;10.19;100.00
29935;BME280;19905;53.370;-6.314;2023-05-11T07:22:30;101131.13;;;10.22;100.00
29935;BME280;19905;53.370;-6.314;2023-05-11T07:25:08;101131.97;;;10.35;100.00
29935;BME280;19905;53.370;-6.314;2023-05-11T07:27:38;101127.97;;;10.42;100.00
29935;BME280;19905;53.370;-6.314;2023-05-11T07:30:09;101142.22;;;10.40;100.00
29935;BME280;19905;53.370;-6.314;2023-05-11T07:32:44;101138.88;;;10.38;100.00
29935;BME280;19905;53.370;-6.314;2023-05-11T07:35:13;101135.50;;;10.36;100.00
29935;BME280;19905;53.370;-6.314;2023-05-11T07:37:43;101134.88;;;10.45;100.00
29935;BME280;19905;53.370;-6.314;2023-05-11T07:40:12;101139.72;;;10.38;100.00
29935;BME280;19905;53.370;-6.314;2023-05-11T07:42:40;101138.75;;;10.39;100.00
29935;BME280;19905;53.370;-6.314;2023-05-11T07:45:11;101137.06;;;10.38;100.00
29935;BME280;19905;53.370;-6.314;2023-05-11T07:47:41;101145.50;;;10.43;100.00
29935;BME280;19905;53.370;-6.314;2023-05-11T07:50:16;101145.00;;;10.51;100.00
29935;BME280;19905;53.370;-6.314;2023-05-11T07:52:46;101149.53;;;10.62;100.00
29935;BME280;19905;53.370;-6.314;2023-05-11T07:55:16;101150.03;;;10.67;100.00
29935;BME280;19905;53.370;-6.314;2023-05-11T07:57:46;101150.28;;;10.77;100.00
29935;BME280;19905;53.370;-6.314;2023-05-11T08:00:17;101154.69;;;10.89;100.00
29935;BME280;19905;53.370;-6.314;2023-05-11T08:02:46;101153.63;;;10.91;100.00
29935;BME280;19905;53.370;-6.314;2023-05-11T08:05:22;101152.34;;;10.84;100.00
29935;BME280;19905;53.370;-6.314;2023-05-11T08:07:58;101148.84;;;10.97;100.00
29935;BME280;19905;53.370;-6.314;2023-05-11T08:10:46;101156.78;;;11.09;100.00
29935;BME280;19905;53.370;-6.314;2023-05-11T08:13:29;101146.44;;;11.30;100.00
29935;BME280;19905;53.370;-6.314;2023-05-11T08:16:10;101138.91;;;11.37;100.00
29935;BME280;19905;53.370;-6.314;2023-05-11T08:18:39;101145.84;;;11.51;100.00
29935;BME280;19905;53.370;-6.314;2023-05-11T08:21:07;101140.31;;;11.54;100.00
29935;BME280;19905;53.370;-6.314;2023-05-11T08:23:36;101134.41;;;11.50;100.00
29935;BME280;19905;53.370;-6.314;2023-05-11T08:26:04;101139.78;;;11.49;100.00
29935;BME280;19905;53.370;-6.314;2023-05-11T08:28:33;101136.94;;;11.52;100.00
29935;BME280;19905;53.370;-6.314;2023-05-11T08:31:01;101120.72;;;11.56;100.00
29935;BME280;19905;53.370;-6.314;2023-05-11T08:33:31;101120.38;;;11.61;100.00
29935;BME280;19905;53.370;-6.314;2023-05-11T08:36:06;101121.72;;;11.90;100.00
29935;BME280;19905;53.370;-6.314;2023-05-11T08:38:35;101122.56;;;11.91;100.00
29935;BME280;19905;53.370;-6.314;2023-05-11T08:41:05;101116.22;;;12.05;100.00
29935;BME280;19905;53.370;-6.314;2023-05-11T08:43:38;101109.03;;;12.18;100.00
29935;BME280;19905;53.370;-6.314;2023-05-11T08:46:16;101107.16;;;12.42;100.00
29935;BME280;19905;53.370;-6.314;2023-05-11T08:48:49;101104.72;;;12.51;100.00
29935;BME280;19905;53.370;-6.314;2023-05-11T08:51:18;101104.63;;;12.52;100.00
29935;BME280;19905;53.370;-6.314;2023-05-11T08:53:48;101102.66;;;12.20;100.00
29935;BME280;19905;53.370;-6.314;2023-05-11T08:56:19;101103.75;;;12.40;100.00
29935;BME280;19905;53.370;-6.314;2023-05-11T08:58:53;101104.13;;;12.58;100.00
29935;BME280;19905;53.370;-6.314;2023-05-11T09:01:27;101097.16;;;12.57;100.00
29935;BME280;19905;53.370;-6.314;2023-05-11T09:03:58;101085.44;;;12.82;100.00
29935;BME280;19905;53.370;-6.314;2023-05-11T09:06:28;101101.34;;;12.82;100.00
29935;BME280;19905;53.370;-6.314;2023-05-11T09:08:59;101106.22;;;11.97;100.00
29935;BME280;19905;53.370;-6.314;2023-05-11T09:11:30;101110.41;;;11.88;100.00
29935;BME280;19905;53.370;-6.314;2023-05-11T09:13:59;101125.72;;;11.72;100.00
29935;BME280;19905;53.370;-6.314;2023-05-11T09:16:30;101115.63;;;11.77;100.00
29935;BME280;19905;53.370;-6.314;2023-05-11T09:19:05;101109.72;;;11.98;100.00
29935;BME280;19905;53.370;-6.314;2023-05-11T09:21:37;101111.94;;;12.26;100.00
29935;BME280;19905;53.370;-6.314;2023-05-11T09:24:10;101109.66;;;12.44;100.00
29935;BME280;19905;53.370;-6.314;2023-05-11T09:26:42;101105.22;;;12.56;100.00
29935;BME280;19905;53.370;-6.314;2023-05-11T09:29:25;101105.94;;;12.46;100.00
29935;BME280;19905;53.370;-6.314;2023-05-11T09:31:56;101119.06;;;11.90;100.00
29935;BME280;19905;53.370;-6.314;2023-05-11T09:34:33;101133.44;;;11.75;100.00
29935;BME280;19905;53.370;-6.314;2023-05-11T09:37:15;101136.78;;;11.77;100.00
29935;BME280;19905;53.370;-6.314;2023-05-11T09:39:45;101131.47;;;11.90;100.00
29935;BME280;19905;53.370;-6.314;2023-05-11T09:42:20;101128.75;;;12.03;100.00
29935;BME280;19905;53.370;-6.314;2023-05-11T09:44:49;101122.44;;;12.39;100.00
29935;BME280;19905;53.370;-6.314;2023-05-11T09:47:21;101117.50;;;12.79;100.00
29935;BME280;19905;53.370;-6.314;2023-05-11T09:49:51;101101.69;;;13.00;100.00
29935;BME280;19905;53.370;-6.314;2023-05-11T09:52:19;101102.13;;;13.39;100.00
29935;BME280;19905;53.370;-6.314;2023-05-11T09:54:53;101086.28;;;13.48;100.00
29935;BME280;19905;53.370;-6.314;2023-05-11T09:57:25;101089.97;;;13.25;100.00
29935;BME280;19905;53.370;-6.314;2023-05-11T09:59:57;101102.19;;;12.94;100.00
29935;BME280;19905;53.370;-6.314;2023-05-11T10:02:28;101100.88;;;12.66;100.00
29935;BME280;19905;53.370;-6.314;2023-05-11T10:05:10;101106.06;;;12.56;100.00
29935;BME280;19905;53.370;-6.314;2023-05-11T10:07:40;101110.28;;;12.59;100.00
29935;BME280;19905;53.370;-6.314;2023-05-11T10:10:09;101121.63;;;12.61;100.00
29935;BME280;19905;53.370;-6.314;2023-05-11T10:12:38;101116.31;;;12.61;100.00
29935;BME280;19905;53.370;-6.314;2023-05-11T10:15:09;101115.84;;;12.56;100.00
29935;BME280;19905;53.370;-6.314;2023-05-11T10:17:38;101119.31;;;12.56;100.00
29935;BME280;19905;53.370;-6.314;2023-05-11T10:20:12;101114.25;;;12.53;100.00
29935;BME280;19905;53.370;-6.314;2023-05-11T10:22:41;101113.03;;;12.24;100.00
29935;BME280;19905;53.370;-6.314;2023-05-11T10:25:10;101116.75;;;12.21;100.00
29935;BME280;19905;53.370;-6.314;2023-05-11T10:27:39;101122.16;;;12.19;100.00
29935;BME280;19905;53.370;-6.314;2023-05-11T10:30:09;101119.97;;;12.13;100.00
29935;BME280;19905;53.370;-6.314;2023-05-11T10:32:39;101107.16;;;12.42;100.00
29935;BME280;19905;53.370;-6.314;2023-05-11T10:35:08;101107.38;;;12.73;100.00
29935;BME280;19905;53.370;-6.314;2023-05-11T10:37:40;101104.16;;;12.69;100.00
29935;BME280;19905;53.370;-6.314;2023-05-11T10:40:11;101099.41;;;12.73;100.00
29935;BME280;19905;53.370;-6.314;2023-05-11T10:43:02;101093.16;;;12.85;100.00
29935;BME280;19905;53.370;-6.314;2023-05-11T10:45:43;101064.69;;;13.42;100.00
29935;BME280;19905;53.370;-6.314;2023-05-11T10:48:51;101049.72;;;14.24;100.00
29935;BME280;19905;53.370;-6.314;2023-05-11T10:54:43;101049.63;;;14.05;100.00
29935;BME280;19905;53.370;-6.314;2023-05-11T10:57:27;101051.00;;;13.79;100.00
29935;BME280;19905;53.370;-6.314;2023-05-11T11:00:17;101065.84;;;13.28;100.00
29935;BME280;19905;53.370;-6.314;2023-05-11T11:02:57;101083.38;;;12.86;100.00
29935;BME280;19905;53.370;-6.314;2023-05-11T11:05:33;101116.78;;;12.43;100.00
29935;BME280;19905;53.370;-6.314;2023-05-11T11:08:05;101114.75;;;11.89;100.00
29935;BME280;19905;53.370;-6.314;2023-05-11T11:10:38;101119.44;;;11.38;100.00
29935;BME280;19905;53.370;-6.314;2023-05-11T11:13:11;101134.19;;;11.16;100.00
29935;BME280;19905;53.370;-6.314;2023-05-11T11:16:08;101140.06;;;11.09;100.00
29935;BME280;19905;53.370;-6.314;2023-05-11T11:18:42;101156.47;;;11.01;100.00
29935;BME280;19905;53.370;-6.314;2023-05-11T11:21:11;101161.31;;;11.07;100.00
29935;BME280;19905;53.370;-6.314;2023-05-11T11:23:43;101162.47;;;11.03;100.00
29935;BME280;19905;53.370;-6.314;2023-05-11T11:26:46;101172.31;;;11.14;100.00
29935;BME280;19905;53.370;-6.314;2023-05-11T11:29:15;101174.38;;;11.22;100.00
29935;BME280;19905;53.370;-6.314;2023-05-11T11:31:44;101169.25;;;11.31;100.00
29935;BME280;19905;53.370;-6.314;2023-05-11T11:34:37;101162.13;;;11.44;100.00
29935;BME280;19905;53.370;-6.314;2023-05-11T11:37:07;101161.38;;;11.55;100.00
29935;BME280;19905;53.370;-6.314;2023-05-11T11:39:54;101163.78;;;11.58;100.00
29935;BME280;19905;53.370;-6.314;2023-05-11T11:42:42;101164.09;;;11.54;100.00
29935;BME280;19905;53.370;-6.314;2023-05-11T11:45:30;101170.66;;;11.61;100.00
29935;BME280;19905;53.370;-6.314;2023-05-11T11:48:20;101173.34;;;11.72;100.00
29935;BME280;19905;53.370;-6.314;2023-05-11T11:51:00;101173.50;;;11.82;100.00
29935;BME280;19905;53.370;-6.314;2023-05-11T11:54:04;101172.13;;;11.89;100.00
29935;BME280;19905;53.370;-6.314;2023-05-11T11:56:38;101175.00;;;12.10;100.00
29935;BME280;19905;53.370;-6.314;2023-05-11T11:59:09;101170.91;;;12.17;100.00
29935;BME280;19905;53.370;-6.314;2023-05-11T12:01:42;101179.47;;;12.20;100.00
29935;BME280;19905;53.370;-6.314;2023-05-11T12:07:19;101170.75;;;12.42;100.00
29935;BME280;19905;53.370;-6.314;2023-05-11T12:09:48;101171.31;;;12.46;100.00
29935;BME280;19905;53.370;-6.314;2023-05-11T12:12:19;101172.41;;;12.43;100.00
29935;BME280;19905;53.370;-6.314;2023-05-11T12:14:49;101170.69;;;12.31;100.00
29935;BME280;19905;53.370;-6.314;2023-05-11T12:17:24;101168.53;;;12.25;100.00
29935;BME280;19905;53.370;-6.314;2023-05-11T12:20:10;101165.25;;;12.10;100.00
29935;BME280;19905;53.370;-6.314;2023-05-11T12:22:40;101160.66;;;12.12;100.00
29935;BME280;19905;53.370;-6.314;2023-05-11T12:25:09;101164.78;;;12.28;100.00
29935;BME280;19905;53.370;-6.314;2023-05-11T12:27:46;101166.13;;;12.33;100.00
29935;BME280;19905;53.370;-6.314;2023-05-11T12:30:21;101171.03;;;12.27;100.00
29935;BME280;19905;53.370;-6.314;2023-05-11T12:32:50;101176.84;;;12.32;100.00
29935;BME280;19905;53.370;-6.314;2023-05-11T12:35:23;101185.03;;;12.29;100.00
29935;BME280;19905;53.370;-6.314;2023-05-11T12:37:52;101188.63;;;12.28;100.00
29935;BME280;19905;53.370;-6.314;2023-05-11T12:40:21;101192.56;;;12.11;100.00
29935;BME280;19905;53.370;-6.314;2023-05-11T12:42:51;101214.19;;;12.05;100.00
29935;BME280;19905;53.370;-6.314;2023-05-11T12:45:25;101227.66;;;11.78;100.00
29935;BME280;19905;53.370;-6.314;2023-05-11T12:47:55;101237.31;;;11.29;100.00
29935;BME280;19905;53.370;-6.314;2023-05-11T12:50:24;101249.19;;;10.85;100.00
29935;BME280;19905;53.370;-6.314;2023-05-11T12:52:53;101255.25;;;10.35;100.00
29935;BME280;19905;53.370;-6.314;2023-05-11T12:55:28;101267.91;;;10.30;100.00
29935;BME280;19905;53.370;-6.314;2023-05-11T12:58:07;101277.22;;;10.35;100.00
29935;BME280;19905;53.370;-6.314;2023-05-11T13:00:49;101290.56;;;10.47;100.00
29935;BME280;19905;53.370;-6.314;2023-05-11T13:03:22;101294.97;;;10.33;100.00
29935;BME280;19905;53.370;-6.314;2023-05-11T13:06:03;101298.31;;;10.50;100.00
29935;BME280;19905;53.370;-6.314;2023-05-11T13:08:31;101299.41;;;10.73;100.00